Terminal Aerodrome Forecast
Issued by NWS

Home | Current Version | Previous Version | Text Only | Print | Product List | Glossary On
Versions: 1 2 3 4 5 6 7 8 9 10 11 12
324
FTUS43 KBIS 301135
TAFMOT
TAF
KMOT 301135Z 3012/0112 19008KT P6SM SKC
     FM010500 14007KT P6SM BKN150
     FM010800 17007KT P6SM BKN080=

USA.gov is the U.S. government's official web portal to all federal, state and local government web resources and services.